Time;durP1;ratioP1;P1;durP2;ratioP2;P2;SDS_P1;SDS_P2;PMS_P1;PMS_P2;Temp;Humidity;BMP_temperature;BMP_pressure;BME280_temperature;BME280_humidity;BME280_pressure;Samples;Min_cycle;Max_cycle;Signal;HPM_P1;HPM_P2
2024/01/16 06:00:46;;;;;;;6.75;2.72;;;-1.10;68.80;;;;;;4671838;23;20066;-76
2024/01/16 06:02:48;;;;;;;8.48;2.88;;;-1.10;68.50;;;;;;4099876;29;20102;-76
2024/01/16 06:04:51;;;;;;;6.32;2.78;;;-1.10;68.50;;;;;;4100663;29;20057;-77
2024/01/16 06:06:52;;;;;;;7.50;2.78;;;-1.00;68.40;;;;;;4100829;29;20051;-79
2024/01/16 06:08:54;;;;;;;5.70;2.55;;;-1.00;68.30;;;;;;4100602;29;20047;-78
2024/01/16 06:10:55;;;;;;;6.45;2.83;;;-1.00;68.20;;;;;;4100661;29;20461;-76
2024/01/16 06:12:57;;;;;;;5.85;2.80;;;-1.00;68.30;;;;;;4100725;29;20047;-79
2024/01/16 06:14:58;;;;;;;6.28;2.80;;;-1.00;68.50;;;;;;4100861;29;20047;-77
2024/01/16 06:17:03;;;;;;;7.53;2.90;;;-1.00;68.50;;;;;;4100713;29;20047;-78
2024/01/16 06:19:05;;;;;;;8.25;3.28;;;-1.10;68.40;;;;;;4101287;29;20098;-78
2024/01/16 06:21:07;;;;;;;7.97;2.60;;;-1.10;68.60;;;;;;4100353;28;20135;-76
2024/01/16 06:23:09;;;;;;;6.47;2.95;;;-1.20;68.70;;;;;;4085089;29;20477;-77
2024/01/16 06:25:11;;;;;;;9.15;3.17;;;-1.20;69.10;;;;;;4100709;29;20051;-76
2024/01/16 06:27:18;;;;;;;8.40;3.03;;;-1.20;69.10;;;;;;4100823;29;20043;-76
2024/01/16 06:29:20;;;;;;;8.27;3.40;;;-1.20;69.40;;;;;;4100623;29;20047;-76
2024/01/16 06:31:23;;;;;;;6.53;2.90;;;-1.30;69.80;;;;;;4100510;29;20043;-76
2024/01/16 06:33:25;;;;;;;9.45;3.40;;;-1.30;69.80;;;;;;4084934;29;20122;-75
2024/01/16 06:35:27;;;;;;;6.78;3.17;;;-1.30;70.00;;;;;;4099252;29;20544;-78
2024/01/16 06:37:29;;;;;;;6.30;2.95;;;-1.30;70.10;;;;;;4100969;29;20055;-75
2024/01/16 06:39:31;;;;;;;8.93;3.33;;;-1.30;70.20;;;;;;4100611;29;20047;-78
2024/01/16 06:41:33;;;;;;;13.50;6.45;;;-1.30;70.30;;;;;;4100399;29;20551;-78
2024/01/16 06:43:35;;;;;;;9.63;4.57;;;-1.30;70.40;;;;;;4100551;29;20098;-77
2024/01/16 06:45:37;;;;;;;12.27;6.28;;;-1.30;70.20;;;;;;4100640;29;20461;-77
2024/01/16 06:47:39;;;;;;;16.17;7.07;;;-1.30;70.30;;;;;;4100761;29;20051;-78
2024/01/16 06:49:42;;;;;;;12.13;5.43;;;-1.20;70.10;;;;;;4100713;29;20039;-77
2024/01/16 06:51:44;;;;;;;11.07;4.43;;;-1.30;70.00;;;;;;4100622;29;20047;-76
2024/01/16 06:53:46;;;;;;;7.22;3.30;;;-1.30;70.10;;;;;;4100386;29;20110;-76
2024/01/16 06:55:49;;;;;;;9.23;3.78;;;-1.30;70.30;;;;;;4100395;29;20051;-76
2024/01/16 06:57:51;;;;;;;8.48;3.90;;;-1.40;70.50;;;;;;4100343;29;20137;-78
2024/01/16 06:59:53;;;;;;;9.45;3.78;;;-1.50;70.70;;;;;;4100266;29;20547;-78
2024/01/16 07:01:55;;;;;;;8.75;3.60;;;-1.50;70.80;;;;;;4099841;29;20531;-78
2024/01/16 07:03:57;;;;;;;7.07;3.70;;;-1.40;70.90;;;;;;4099989;29;20044;-77
2024/01/16 07:06:00;;;;;;;9.13;3.78;;;-1.40;70.80;;;;;;4100134;29;21616;-77
2024/01/16 07:08:02;;;;;;;8.15;3.58;;;-1.50;70.70;;;;;;4100075;29;20047;-78
2024/01/16 07:10:07;;;;;;;7.00;3.65;;;-1.50;70.80;;;;;;4099966;29;20055;-76
2024/01/16 07:12:09;;;;;;;10.23;4.07;;;-1.40;70.70;;;;;;4100030;29;20102;-75
2024/01/16 07:14:11;;;;;;;7.63;3.47;;;-1.40;70.60;;;;;;4100392;29;20047;-75
2024/01/16 07:16:14;;;;;;;8.52;3.42;;;-1.50;70.90;;;;;;4100334;29;20098;-78
2024/01/16 07:18:16;;;;;;;7.95;3.85;;;-1.40;70.70;;;;;;4100215;29;20444;-78
2024/01/16 07:20:18;;;;;;;8.63;3.80;;;-1.50;70.90;;;;;;4099986;29;20047;-77
2024/01/16 07:22:21;;;;;;;7.03;3.60;;;-1.50;71.20;;;;;;4099832;29;20055;-78
2024/01/16 07:24:23;;;;;;;7.97;4.05;;;-1.40;71.30;;;;;;4099942;29;20106;-76
2024/01/16 07:26:25;;;;;;;9.98;3.90;;;-1.30;71.20;;;;;;4100210;29;20094;-77
2024/01/16 07:28:27;;;;;;;9.90;4.63;;;-1.30;70.70;;;;;;4100909;29;20106;-78
2024/01/16 07:30:29;;;;;;;8.93;3.92;;;-1.30;70.70;;;;;;4100850;29;20051;-77
2024/01/16 07:32:31;;;;;;;8.48;4.15;;;-1.20;70.90;;;;;;4100976;28;20472;-77
2024/01/16 07:34:33;;;;;;;8.48;4.68;;;-1.20;70.60;;;;;;4104740;29;20054;-78
2024/01/16 07:36:35;;;;;;;7.97;4.07;;;-1.20;70.60;;;;;;4104899;29;20051;-78
2024/01/16 07:38:38;;;;;;;8.25;4.00;;;-1.10;70.50;;;;;;4104602;29;20078;-78
2024/01/16 07:40:41;;;;;;;10.07;4.07;;;-1.10;70.50;;;;;;4103791;29;20053;-78
2024/01/16 07:42:42;;;;;;;10.55;3.80;;;-1.10;70.40;;;;;;4103217;29;20099;-78
2024/01/16 07:44:44;;;;;;;8.90;3.95;;;-1.10;70.30;;;;;;4103357;29;20417;-77
2024/01/16 07:46:46;;;;;;;9.82;4.10;;;-1.10;70.00;;;;;;4103787;29;20047;-76
2024/01/16 07:48:48;;;;;;;9.77;4.20;;;-1.10;70.10;;;;;;4103761;29;20043;-77
2024/01/16 07:50:50;;;;;;;8.10;4.20;;;-1.10;69.90;;;;;;4102727;29;20095;-77
2024/01/16 07:52:52;;;;;;;8.18;4.13;;;-1.10;69.60;;;;;;4103348;29;20051;-79
2024/01/16 07:54:55;;;;;;;9.13;3.78;;;-1.10;69.70;;;;;;4102922;29;20468;-79
2024/01/16 07:56:57;;;;;;;10.43;4.75;;;-1.10;69.70;;;;;;4102803;29;20102;-79
2024/01/16 07:58:59;;;;;;;9.02;4.45;;;-1.10;69.60;;;;;;4102803;29;20485;-79
2024/01/16 08:01:02;;;;;;;9.25;4.63;;;-1.10;69.50;;;;;;4102563;29;20051;-79
2024/01/16 08:03:10;;;;;;;9.43;4.60;;;-1.10;69.60;;;;;;4102677;29;20051;-77
2024/01/16 08:05:12;;;;;;;7.95;3.85;;;-1.10;70.00;;;;;;4102875;29;20102;-76
2024/01/16 08:07:14;;;;;;;10.15;4.60;;;-1.10;70.00;;;;;;4102634;29;20113;-79
2024/01/16 08:09:17;;;;;;;8.90;4.45;;;-1.10;69.80;;;;;;4102686;29;20123;-78
2024/01/16 08:11:20;;;;;;;10.15;4.45;;;-1.20;70.60;;;;;;4102907;29;20403;-77
2024/01/16 08:13:22;;;;;;;9.20;4.25;;;-1.30;70.00;;;;;;4102931;29;20081;-78
2024/01/16 08:15:24;;;;;;;11.27;4.40;;;-1.30;70.00;;;;;;4102488;29;20053;-78
2024/01/16 08:17:26;;;;;;;9.88;3.95;;;-1.20;70.20;;;;;;4103015;29;20043;-78
2024/01/16 08:19:28;;;;;;;8.38;4.22;;;-1.10;69.70;;;;;;4102807;29;20094;-77
2024/01/16 08:21:30;;;;;;;23.70;10.35;;;-1.20;69.90;;;;;;4102421;29;20473;-78
2024/01/16 08:23:31;;;;;;;21.38;8.00;;;-1.20;69.70;;;;;;4102543;29;20137;-79
2024/01/16 08:25:33;;;;;;;12.07;5.57;;;-1.20;69.60;;;;;;4102510;29;20043;-77
2024/01/16 08:27:37;;;;;;;9.13;4.18;;;-1.10;69.50;;;;;;4102480;29;20051;-79
2024/01/16 08:29:39;;;;;;;9.10;4.32;;;-1.00;69.30;;;;;;4102192;29;20054;-75
2024/01/16 08:31:41;;;;;;;11.85;4.38;;;-0.90;69.20;;;;;;4102258;29;20099;-77
2024/01/16 08:33:42;;;;;;;9.35;4.63;;;-0.90;69.00;;;;;;4102462;29;20047;-79
2024/01/16 08:35:44;;;;;;;10.43;4.60;;;-0.90;68.80;;;;;;4102522;29;20047;-76
2024/01/16 08:37:46;;;;;;;8.65;4.20;;;-0.90;68.80;;;;;;4102434;29;20043;-78
2024/01/16 08:39:48;;;;;;;8.82;4.53;;;-1.00;68.80;;;;;;4102270;29;20118;-78
2024/01/16 08:41:49;;;;;;;11.45;4.60;;;-1.10;69.30;;;;;;4102037;29;20106;-77
2024/01/16 08:43:53;;;;;;;8.82;4.40;;;-1.10;69.50;;;;;;4102157;28;20079;-78
2024/01/16 08:45:55;;;;;;;9.43;4.25;;;-1.00;69.60;;;;;;4102190;29;20078;-77
2024/01/16 08:47:58;;;;;;;9.25;4.63;;;-0.90;69.80;;;;;;4102235;29;20467;-78
2024/01/16 08:49:59;;;;;;;10.15;4.40;;;-0.90;69.70;;;;;;4102100;29;20066;-79
2024/01/16 08:52:02;;;;;;;10.00;4.68;;;-0.80;69.50;;;;;;4101896;29;20047;-79
2024/01/16 08:54:04;;;;;;;9.98;4.65;;;-0.80;69.20;;;;;;4102063;29;20485;-78
2024/01/16 08:56:06;;;;;;;10.23;4.82;;;-0.90;69.00;;;;;;4102070;29;20074;-76
2024/01/16 08:58:08;;;;;;;8.85;4.18;;;-1.00;69.70;;;;;;4102763;29;20457;-77
2024/01/16 09:00:13;;;;;;;10.52;5.35;;;-0.90;69.70;;;;;;4102159;29;20051;-77
2024/01/16 09:02:16;;;;;;;10.50;4.80;;;-0.90;69.80;;;;;;4100425;29;20063;-77
2024/01/16 09:04:18;;;;;;;12.13;5.25;;;-1.00;69.50;;;;;;4101914;29;20302;-77
2024/01/16 09:06:21;;;;;;;10.43;4.82;;;-1.00;69.80;;;;;;4101627;29;20051;-76
2024/01/16 09:08:23;;;;;;;10.00;5.35;;;-1.10;69.90;;;;;;4101682;29;20460;-79
2024/01/16 09:10:25;;;;;;;11.18;4.85;;;-1.10;69.80;;;;;;4101862;29;20055;-78
2024/01/16 09:12:27;;;;;;;10.57;5.07;;;-1.10;70.00;;;;;;4101809;29;20476;-76
2024/01/16 09:14:29;;;;;;;12.38;5.15;;;-1.00;70.10;;;;;;4101764;29;20075;-77
2024/01/16 09:16:32;;;;;;;10.98;5.28;;;-1.00;69.30;;;;;;4101452;29;20043;-78
2024/01/16 09:18:33;;;;;;;8.60;4.57;;;-1.20;70.30;;;;;;4101671;29;20409;-78
2024/01/16 09:20:35;;;;;;;10.38;5.00;;;-1.20;70.10;;;;;;4101513;29;20051;-77
2024/01/16 09:22:37;;;;;;;8.80;4.75;;;-1.10;70.20;;;;;;4101060;29;20078;-75
2024/01/16 09:24:39;;;;;;;8.60;4.80;;;-1.20;69.70;;;;;;4101738;29;20051;-77
2024/01/16 09:26:41;;;;;;;9.75;4.93;;;-1.10;69.80;;;;;;4101529;29;20044;-78
2024/01/16 09:28:44;;;;;;;10.32;5.25;;;-0.90;70.00;;;;;;4101670;29;20456;-78
2024/01/16 09:30:45;;;;;;;11.45;5.13;;;-0.80;68.90;;;;;;4101501;29;20134;-78
2024/01/16 09:32:48;;;;;;;8.63;4.75;;;-0.60;68.10;;;;;;4101383;29;20051;-76
2024/01/16 09:34:49;;;;;;;9.50;4.78;;;-0.50;67.60;;;;;;4100216;29;20047;-77
2024/01/16 09:36:51;;;;;;;9.25;4.82;;;-0.50;67.30;;;;;;4101488;29;20090;-78
2024/01/16 09:38:52;;;;;;;9.05;4.60;;;-0.50;66.70;;;;;;4101489;29;20501;-76
2024/01/16 09:40:58;;;;;;;10.30;5.28;;;-0.60;67.00;;;;;;4101671;29;20051;-78
2024/01/16 09:42:59;;;;;;;10.00;5.03;;;-0.50;67.70;;;;;;4101867;29;20058;-78
2024/01/16 09:45:03;;;;;;;9.20;4.95;;;-0.40;67.10;;;;;;4101612;29;20480;-78
2024/01/16 09:47:07;;;;;;;10.93;5.00;;;-0.30;66.20;;;;;;4101430;29;20408;-79
2024/01/16 09:49:11;;;;;;;10.57;5.00;;;-0.40;65.90;;;;;;4101135;29;20114;-77
2024/01/16 09:51:14;;;;;;;9.00;4.55;;;-0.60;66.60;;;;;;4101492;29;20051;-76
2024/01/16 09:53:16;;;;;;;12.95;5.05;;;-0.70;67.30;;;;;;4101326;29;20548;-76
2024/01/16 09:55:18;;;;;;;11.07;4.80;;;-0.80;67.50;;;;;;4101202;28;20047;-77
2024/01/16 09:57:22;;;;;;;11.45;4.95;;;-0.80;67.60;;;;;;4101277;29;20090;-76
2024/01/16 09:59:25;;;;;;;12.00;5.45;;;-0.80;68.00;;;;;;4101292;29;20047;-76
2024/01/16 10:01:28;;;;;;;10.93;5.25;;;-0.70;68.10;;;;;;4100744;29;20063;-77
2024/01/16 10:03:32;;;;;;;11.30;5.10;;;-0.50;67.60;;;;;;4101207;29;20087;-77
2024/01/16 10:05:36;;;;;;;9.77;4.68;;;-0.30;67.00;;;;;;4101401;29;20079;-77
2024/01/16 10:07:39;;;;;;;10.73;5.03;;;-0.20;66.20;;;;;;4101266;29;20126;-75
2024/01/16 10:09:41;;;;;;;9.65;5.18;;;-0.30;66.20;;;;;;4099921;28;20094;-78
2024/01/16 10:11:43;;;;;;;11.55;4.93;;;-0.20;66.40;;;;;;4098968;29;20142;-76
2024/01/16 10:13:45;;;;;;;12.75;5.68;;;-0.10;66.30;;;;;;4099271;29;20157;-76
2024/01/16 10:15:52;;;;;;;12.32;5.30;;;0.00;65.70;;;;;;4098862;29;20047;-76
2024/01/16 10:17:54;;;;;;;13.40;5.47;;;0.10;65.50;;;;;;4098943;29;20806;-78
2024/01/16 10:19:58;;;;;;;10.65;5.10;;;0.20;65.30;;;;;;4098917;29;20063;-78
2024/01/16 10:22:06;;;;;;;13.43;5.93;;;0.20;65.50;;;;;;4098664;29;20400;-76
2024/01/16 10:24:13;;;;;;;13.55;6.07;;;0.30;66.30;;;;;;4099125;29;20051;-78
2024/01/16 10:26:15;;;;;;;11.88;5.35;;;0.40;66.40;;;;;;4100017;29;20397;-77
2024/01/16 10:28:21;;;;;;;10.57;5.72;;;0.40;66.20;;;;;;4099943;29;20073;-77
2024/01/16 10:30:23;;;;;;;12.05;5.50;;;0.50;65.80;;;;;;4099010;29;20051;-74
2024/01/16 10:32:29;;;;;;;12.05;5.80;;;0.50;65.50;;;;;;4098732;29;20461;-77
2024/01/16 10:34:31;;;;;;;12.70;5.80;;;0.60;65.10;;;;;;4082538;29;20052;-78
2024/01/16 10:36:33;;;;;;;8.98;5.15;;;0.60;64.70;;;;;;4083415;29;20086;-76
2024/01/16 10:38:37;;;;;;;11.63;5.53;;;0.60;64.60;;;;;;4098527;29;20058;-77
2024/01/16 10:40:39;;;;;;;11.45;5.38;;;0.60;64.50;;;;;;4098410;29;20101;-77
2024/01/16 10:42:40;;;;;;;10.57;5.55;;;0.70;65.70;;;;;;4098770;29;20102;-77
2024/01/16 10:44:54;;;;;;;9.88;5.57;;;0.70;65.10;;;;;;4098374;29;20410;-76
2024/01/16 10:47:12;;;;;;;11.35;5.60;;;0.70;64.80;;;;;;4098554;29;20058;-77
2024/01/16 10:49:14;;;;;;;10.40;5.22;;;0.80;65.20;;;;;;4098631;29;20074;-76
2024/01/16 10:51:16;;;;;;;10.75;5.47;;;0.80;65.40;;;;;;4096800;29;20058;-76
2024/01/16 10:53:21;;;;;;;9.10;5.32;;;0.90;65.20;;;;;;4098780;29;20055;-74
2024/01/16 10:55:25;;;;;;;11.80;5.68;;;0.90;64.30;;;;;;4098338;29;20047;-75
2024/01/16 10:57:27;;;;;;;11.45;6.20;;;0.90;64.00;;;;;;4097216;29;20461;-76
2024/01/16 10:59:38;;;;;;;11.88;6.35;;;0.80;63.70;;;;;;4084883;28;20059;-77
2024/01/16 11:01:44;;;;;;;10.45;5.18;;;0.90;64.20;;;;;;4081935;29;20063;-78
2024/01/16 11:03:47;;;;;;;;;;;0.90;64.00;;;;;;4082648;29;20489;-75
2024/01/16 11:05:50;;;;;;;12.18;5.85;;;0.90;63.70;;;;;;4096709;29;19931;-76
2024/01/16 11:07:55;;;;;;;11.30;5.22;;;0.80;63.90;;;;;;4098498;28;20453;-78
2024/01/16 11:09:57;;;;;;;10.13;5.45;;;0.80;64.40;;;;;;4100951;29;20117;-77
2024/01/16 11:12:00;;;;;;;13.90;6.18;;;0.80;64.20;;;;;;4101442;29;20047;-77
2024/01/16 11:14:04;;;;;;;13.68;5.70;;;1.00;64.50;;;;;;4100970;29;20050;-76
2024/01/16 11:16:07;;;;;;;11.98;5.70;;;1.10;64.60;;;;;;4101419;29;20441;-76
2024/01/16 11:18:11;;;;;;;11.45;5.68;;;1.10;63.50;;;;;;4101225;29;20397;-77
2024/01/16 11:20:14;;;;;;;12.07;5.80;;;1.10;63.30;;;;;;4101518;29;20058;-77
2024/01/16 11:22:17;;;;;;;13.43;5.70;;;1.00;62.90;;;;;;4100603;29;20057;-77
2024/01/16 11:24:19;;;;;;;12.40;5.60;;;1.00;63.00;;;;;;4100957;29;20055;-78
2024/01/16 11:26:28;;;;;;;14.02;5.90;;;1.00;63.10;;;;;;4100950;29;20055;-77
2024/01/16 11:28:32;;;;;;;10.95;5.63;;;1.20;63.60;;;;;;4100934;29;20081;-77
2024/01/16 11:30:33;;;;;;;9.88;5.28;;;1.20;63.20;;;;;;4100956;29;20079;-78
2024/01/16 11:32:37;;;;;;;10.73;5.22;;;1.30;62.60;;;;;;4100986;29;20051;-77
2024/01/16 11:34:57;;;;;;;11.93;6.00;;;1.30;62.50;;;;;;4100838;29;20473;-76
2024/01/16 11:37:02;;;;;;;12.10;5.78;;;1.30;61.80;;;;;;4100615;29;20089;-80
2024/01/16 11:39:06;;;;;;;14.30;6.38;;;1.40;62.60;;;;;;4101208;29;20055;-78
2024/01/16 11:41:08;;;;;;;11.25;6.45;;;1.40;63.10;;;;;;4100665;29;20046;-76
2024/01/16 11:43:38;;;;;;;11.50;6.03;;;1.40;62.80;;;;;;4100752;29;20051;-77
2024/01/16 11:45:50;;;;;;;12.65;6.15;;;1.40;62.20;;;;;;4100556;29;20110;-79
2024/01/16 11:48:10;;;;;;;11.43;5.97;;;1.40;62.10;;;;;;4100867;29;20054;-78
2024/01/16 11:50:29;;;;;;;11.20;6.13;;;1.50;62.10;;;;;;4101029;29;20449;-75
2024/01/16 11:52:42;;;;;;;13.57;6.32;;;1.50;62.50;;;;;;4099661;29;20051;-78
2024/01/16 11:54:45;;;;;;;11.07;5.68;;;1.60;62.70;;;;;;4102669;29;20330;-77
2024/01/16 11:57:12;;;;;;;12.02;5.97;;;1.60;61.80;;;;;;4101888;29;20142;-76
2024/01/16 11:59:58;;;;;;;11.95;5.90;;;1.70;61.50;;;;;;4100741;29;20055;-77
2024/01/16 12:02:03;;;;;;;9.70;5.40;;;1.80;62.10;;;;;;4100294;29;20398;-77
2024/01/16 12:04:05;;;;;;;10.20;4.93;;;1.90;61.40;;;;;;4100268;29;20090;-78
2024/01/16 12:06:08;;;;;;;11.98;5.50;;;1.90;60.60;;;;;;4100515;29;20145;-77
2024/01/16 12:08:10;;;;;;;11.48;5.95;;;2.00;61.00;;;;;;4100309;29;20051;-78
2024/01/16 12:10:11;;;;;;;10.00;5.07;;;2.10;60.70;;;;;;4100048;29;20110;-75
2024/01/16 12:12:18;;;;;;;12.85;5.80;;;2.20;60.20;;;;;;4100474;29;20484;-76
2024/01/16 12:14:21;;;;;;;11.18;5.47;;;2.30;59.80;;;;;;4100423;29;20500;-79
2024/01/16 12:16:23;;;;;;;12.10;5.40;;;2.40;59.10;;;;;;4100409;29;20055;-78
2024/01/16 12:18:24;;;;;;;10.13;5.18;;;2.50;58.90;;;;;;4099916;28;20093;-78
2024/01/16 12:20:29;;;;;;;10.75;4.68;;;2.60;58.90;;;;;;4099724;29;20055;-78
2024/01/16 12:22:30;;;;;;;7.43;4.28;;;2.60;58.50;;;;;;4099666;29;20615;-78
2024/01/16 12:24:31;;;;;;;6.93;3.70;;;2.80;58.10;;;;;;4100029;29;20051;-78
2024/01/16 12:26:33;;;;;;;6.53;3.30;;;2.80;57.40;;;;;;4099975;29;20098;-78
2024/01/16 12:28:36;;;;;;;6.90;3.38;;;2.90;56.00;;;;;;4099001;29;20051;-77
2024/01/16 12:30:38;;;;;;;9.23;3.58;;;2.90;55.00;;;;;;4099902;29;20146;-78
2024/01/16 12:32:41;;;;;;;8.55;3.22;;;3.10;55.80;;;;;;4100274;29;20062;-78
2024/01/16 12:34:48;;;;;;;7.38;3.42;;;3.20;56.70;;;;;;4099940;29;20054;-78
2024/01/16 12:37:06;;;;;;;5.68;2.50;;;3.40;55.50;;;;;;4100441;29;20555;-78
2024/01/16 12:39:11;;;;;;;9.05;3.15;;;3.60;54.90;;;;;;4100695;29;20047;-78
2024/01/16 12:41:14;;;;;;;7.43;2.93;;;3.80;53.60;;;;;;4096804;29;20059;-79
2024/01/16 12:43:18;;;;;;;6.38;3.05;;;3.90;53.10;;;;;;4083970;29;20087;-77
2024/01/16 12:45:21;;;;;;;7.57;3.00;;;4.20;53.30;;;;;;4095190;29;20087;-77
2024/01/16 12:47:24;;;;;;;6.68;2.80;;;4.20;50.20;;;;;;4099736;29;20099;-78
2024/01/16 12:49:26;;;;;;;6.90;2.75;;;4.30;51.40;;;;;;4099771;29;20093;-78
2024/01/16 12:51:28;;;;;;;6.25;2.72;;;4.60;50.40;;;;;;4097862;29;20055;-78
2024/01/16 12:53:31;;;;;;;6.15;2.90;;;4.90;50.00;;;;;;4099948;29;20487;-76
2024/01/16 12:55:34;;;;;;;6.95;3.08;;;5.10;50.30;;;;;;4099407;29;20055;-76
2024/01/16 12:57:37;;;;;;;5.63;3.05;;;5.60;50.00;;;;;;4099249;29;20047;-77
2024/01/16 12:59:38;;;;;;;8.30;3.38;;;6.00;48.80;;;;;;4099723;29;20075;-78
2024/01/16 13:01:43;;;;;;;5.97;2.90;;;6.50;47.30;;;;;;4099526;29;20063;-78
2024/01/16 13:03:46;;;;;;;7.03;2.92;;;7.50;46.20;;;;;;4097811;29;20461;-78
2024/01/16 13:05:57;;;;;;;6.78;3.22;;;11.00;40.30;;;;;;4099750;29;20493;-77
2024/01/16 13:08:03;;;;;;;8.05;3.15;;;14.60;32.80;;;;;;4099344;29;20058;-79
2024/01/16 13:10:11;;;;;;;6.65;3.10;;;17.00;28.90;;;;;;4099463;29;20051;-79
2024/01/16 13:12:21;;;;;;;7.57;3.30;;;18.70;26.10;;;;;;4099834;29;20193;-80
2024/01/16 13:14:23;;;;;;;6.55;3.17;;;20.40;24.40;;;;;;4099915;29;20082;-79
2024/01/16 13:16:25;;;;;;;5.97;3.03;;;21.50;22.70;;;;;;4099554;29;20556;-79
2024/01/16 13:18:28;;;;;;;6.47;2.90;;;22.90;22.10;;;;;;4099869;29;20548;-78
2024/01/16 13:20:32;;;;;;;6.00;2.80;;;23.70;20.30;;;;;;4099993;29;20058;-78
2024/01/16 13:22:34;;;;;;;5.85;2.80;;;24.40;19.20;;;;;;4099445;29;20106;-79
2024/01/16 13:24:36;;;;;;;6.15;3.20;;;24.70;19.70;;;;;;4098930;29;20047;-78
2024/01/16 13:26:37;;;;;;;6.95;3.22;;;25.50;19.00;;;;;;4099579;29;20051;-80
2024/01/16 13:28:39;;;;;;;6.28;2.88;;;26.40;18.40;;;;;;4101035;29;20130;-77
2024/01/16 13:30:40;;;;;;;5.05;3.10;;;26.90;17.40;;;;;;4101136;28;20087;-77
2024/01/16 13:32:41;;;;;;;6.45;3.20;;;27.30;17.30;;;;;;4102710;29;20295;-76
2024/01/16 13:34:48;;;;;;;7.97;3.20;;;28.30;16.50;;;;;;4102723;29;20091;-78
2024/01/16 13:36:52;;;;;;;6.78;3.30;;;28.90;16.10;;;;;;4101165;29;20129;-78
2024/01/16 13:38:54;;;;;;;6.43;3.45;;;29.00;15.90;;;;;;4098696;29;20047;-78
2024/01/16 13:40:56;;;;;;;7.57;3.85;;;29.60;15.80;;;;;;4098955;29;20134;-79
2024/01/16 13:42:57;;;;;;;7.53;3.40;;;30.20;15.40;;;;;;4099704;29;20437;-78
2024/01/16 13:44:59;;;;;;;5.97;3.30;;;30.80;14.90;;;;;;4098891;29;20051;-78
2024/01/16 13:47:00;;;;;;;7.97;3.58;;;30.90;14.90;;;;;;4098102;29;20051;-78
2024/01/16 13:49:02;;;;;;;5.53;3.35;;;30.90;14.50;;;;;;4099669;29;20118;-78
2024/01/16 13:51:04;;;;;;;6.03;3.47;;;31.10;14.50;;;;;;4097520;29;20432;-77
2024/01/16 13:53:07;;;;;;;8.48;3.47;;;31.90;14.40;;;;;;4099119;29;20093;-77
2024/01/16 13:55:10;;;;;;;7.72;3.70;;;32.50;14.20;;;;;;4098657;29;20464;-78
2024/01/16 13:57:12;;;;;;;6.97;3.28;;;32.80;13.90;;;;;;4098986;29;20130;-76
2024/01/16 13:59:14;;;;;;;6.28;3.35;;;33.20;13.50;;;;;;4098971;29;20059;-76
2024/01/16 14:01:18;;;;;;;7.43;3.53;;;32.70;13.30;;;;;;4099007;29;20055;-76
2024/01/16 14:03:20;;;;;;;5.75;3.50;;;32.80;13.20;;;;;;4099363;29;20126;-77
2024/01/16 14:05:22;;;;;;;6.35;3.47;;;33.20;12.70;;;;;;4099093;29;20089;-77
2024/01/16 14:07:24;;;;;;;6.25;3.40;;;33.70;12.60;;;;;;4099255;29;20058;-76
2024/01/16 14:09:27;;;;;;;7.38;3.40;;;33.50;12.60;;;;;;4098971;29;20078;-77
2024/01/16 14:11:29;;;;;;;6.45;3.00;;;33.30;12.80;;;;;;4099154;29;20058;-76
2024/01/16 14:13:31;;;;;;;6.20;3.20;;;33.80;12.50;;;;;;4099865;29;20047;-76
2024/01/16 14:15:33;;;;;;;6.28;3.28;;;34.30;12.40;;;;;;4100435;29;20051;-77
2024/01/16 14:17:35;;;;;;;6.93;3.40;;;34.50;12.20;;;;;;4102884;29;20102;-77
2024/01/16 14:19:38;;;;;;;5.28;3.03;;;34.20;12.10;;;;;;4102873;29;20154;-78
2024/01/16 14:21:39;;;;;;;7.22;3.53;;;33.10;12.10;;;;;;4099533;29;20094;-77
2024/01/16 14:23:40;;;;;;;5.65;3.20;;;33.30;12.40;;;;;;4099102;29;20055;-76
2024/01/16 14:25:45;;;;;;;7.45;3.83;;;33.70;12.20;;;;;;4098560;29;20114;-77
2024/01/16 14:27:56;;;;;;;6.60;3.15;;;34.10;11.90;;;;;;4098726;29;20051;-80
2024/01/16 14:29:58;;;;;;;7.03;3.72;;;34.10;11.80;;;;;;4099023;29;20047;-78
2024/01/16 14:32:00;;;;;;;6.45;3.47;;;34.00;12.00;;;;;;4099784;29;20059;-75
2024/01/16 14:34:03;;;;;;;7.78;4.05;;;33.60;11.90;;;;;;4100253;29;20078;-76
2024/01/16 14:36:05;;;;;;;6.65;3.60;;;33.80;11.90;;;;;;4101958;29;20051;-77
2024/01/16 14:38:07;;;;;;;5.97;3.67;;;33.30;12.00;;;;;;4102130;29;20051;-77
2024/01/16 14:40:12;;;;;;;13.77;9.18;;;33.30;12.00;;;;;;4100618;29;20055;-77
2024/01/16 14:42:15;;;;;;;;;;;33.00;12.10;;;;;;4098877;28;20496;-78
2024/01/16 14:44:16;;;;;;;20.90;14.00;;;32.80;12.10;;;;;;4098974;29;19926;-78
2024/01/16 14:46:18;;;;;;;16.50;9.40;;;32.50;12.60;;;;;;4098112;29;20106;-83
2024/01/16 14:48:21;;;;;;;10.57;6.90;;;31.90;12.60;;;;;;4098441;29;20051;-81
2024/01/16 14:50:23;;;;;;;6.93;5.50;;;31.60;12.40;;;;;;4101710;29;20606;-80
2024/01/16 14:52:25;;;;;;;7.22;5.95;;;31.30;12.50;;;;;;4098193;29;20051;-78
2024/01/16 14:54:26;;;;;;;8.93;5.55;;;30.10;12.90;;;;;;4098453;29;20055;-80
2024/01/16 14:56:30;;;;;;;7.72;4.20;;;29.60;13.10;;;;;;4098618;29;20118;-76
2024/01/16 14:58:33;;;;;;;7.65;5.65;;;27.70;13.30;;;;;;4098306;29;20094;-77
2024/01/16 15:00:35;;;;;;;10.23;6.32;;;26.60;14.80;;;;;;4081235;29;20510;-77
2024/01/16 15:02:35;;;;;;;9.07;7.50;;;26.40;14.50;;;;;;4098654;29;20107;-76
2024/01/16 15:04:37;;;;;;;11.20;8.10;;;26.70;14.40;;;;;;4098407;29;20051;-76
2024/01/16 15:06:40;;;;;;;9.65;8.32;;;26.10;14.50;;;;;;4098494;29;20109;-76
2024/01/16 15:08:42;;;;;;;7.55;6.82;;;26.00;14.50;;;;;;4098156;29;20051;-75
2024/01/16 15:10:44;;;;;;;7.72;5.22;;;25.60;14.80;;;;;;4098183;29;20548;-77
2024/01/16 15:12:47;;;;;;;6.93;5.57;;;24.60;15.30;;;;;;4098579;29;20058;-77
2024/01/16 15:14:51;;;;;;;8.98;5.40;;;23.50;15.80;;;;;;4098180;29;20158;-77
2024/01/16 15:16:53;;;;;;;7.43;4.85;;;23.50;16.20;;;;;;4098522;29;20063;-77
2024/01/16 15:18:56;;;;;;;7.55;4.68;;;23.30;16.30;;;;;;4098232;29;20051;-78
2024/01/16 15:20:58;;;;;;;5.68;4.15;;;23.10;16.20;;;;;;4098309;29;20049;-75
2024/01/16 15:23:01;;;;;;;6.97;4.38;;;22.80;16.30;;;;;;4098086;29;20062;-77
2024/01/16 15:25:02;;;;;;;8.45;3.83;;;22.10;16.70;;;;;;4082536;29;20134;-78
2024/01/16 15:27:04;;;;;;;8.35;3.38;;;21.30;17.00;;;;;;4082968;29;20055;-77
2024/01/16 15:29:08;;;;;;;6.05;3.45;;;20.30;17.80;;;;;;4084445;29;20060;-76
2024/01/16 15:31:13;;;;;;;6.78;3.30;;;19.20;18.70;;;;;;4092365;29;20047;-78
2024/01/16 15:33:15;;;;;;;5.82;2.97;;;18.60;19.50;;;;;;4097925;29;20485;-76
2024/01/16 15:35:17;;;;;;;9.50;3.58;;;17.20;20.80;;;;;;4098166;29;20059;-78
2024/01/16 15:37:19;;;;;;;7.13;3.10;;;15.80;22.10;;;;;;4099713;29;20059;-77
2024/01/16 15:39:21;;;;;;;8.95;3.35;;;14.50;23.40;;;;;;4100064;29;20070;-76
2024/01/16 15:41:23;;;;;;;6.40;2.97;;;13.40;24.80;;;;;;4100091;29;20055;-78
2024/01/16 15:43:25;;;;;;;6.72;3.50;;;12.40;25.90;;;;;;4098956;29;20055;-78
2024/01/16 15:45:28;;;;;;;8.75;3.40;;;11.60;27.20;;;;;;4097536;29;20051;-78
2024/01/16 15:47:31;;;;;;;7.53;3.72;;;10.90;28.10;;;;;;4097878;29;20039;-78
2024/01/16 15:49:33;;;;;;;6.90;3.55;;;10.10;29.70;;;;;;4099298;29;20110;-79
2024/01/16 15:51:35;;;;;;;7.07;3.30;;;9.40;31.30;;;;;;4096763;29;20054;-77
2024/01/16 15:53:37;;;;;;;7.45;3.42;;;8.80;32.80;;;;;;4099388;28;20481;-78
2024/01/16 15:55:39;;;;;;;10.55;5.03;;;8.20;34.10;;;;;;4101457;29;20465;-80
2024/01/16 15:57:41;;;;;;;30.55;18.25;;;8.00;34.80;;;;;;4099799;29;20126;-79
2024/01/16 15:59:43;;;;;;;44.40;24.42;;;7.70;35.40;;;;;;4100678;29;20096;-78
2024/01/16 16:01:45;;;;;;;29.55;17.88;;;7.30;36.50;;;;;;4100687;29;20059;-76
2024/01/16 16:03:48;;;;;;;31.45;16.55;;;6.80;37.60;;;;;;4100597;29;20047;-80
2024/01/16 16:05:50;;;;;;;33.28;19.80;;;6.60;38.20;;;;;;4100846;29;20075;-78
2024/01/16 16:07:51;;;;;;;35.33;20.92;;;6.30;38.80;;;;;;4100858;29;20444;-79
2024/01/16 16:09:53;;;;;;;12.40;6.82;;;6.10;39.20;;;;;;4100478;29;20051;-79
2024/01/16 16:11:56;;;;;;;10.10;4.40;;;5.90;39.80;;;;;;4100628;29;20054;-79
2024/01/16 16:13:57;;;;;;;7.05;3.28;;;5.70;40.20;;;;;;4100062;29;20419;-79
2024/01/16 16:15:59;;;;;;;7.60;3.13;;;5.60;40.90;;;;;;4100415;29;20089;-78
2024/01/16 16:18:02;;;;;;;6.15;2.92;;;5.50;41.20;;;;;;4100678;29;20055;-80
2024/01/16 16:20:09;;;;;;;7.38;3.40;;;5.40;42.40;;;;;;4100907;29;20568;-78
2024/01/16 16:22:11;;;;;;;10.23;3.35;;;5.10;43.50;;;;;;4100337;29;20512;-81
2024/01/16 16:24:13;;;;;;;8.90;3.22;;;5.00;44.40;;;;;;4100649;29;20200;-79
2024/01/16 16:26:31;;;;;;;6.05;2.50;;;4.90;45.00;;;;;;4100375;29;20111;-77
2024/01/16 16:28:33;;;;;;;8.98;2.63;;;4.70;45.70;;;;;;4100267;29;20558;-80
2024/01/16 16:30:35;;;;;;;7.60;2.92;;;4.40;46.10;;;;;;4100099;29;20146;-79
2024/01/16 16:32:37;;;;;;;7.80;3.20;;;4.30;46.50;;;;;;4100056;29;20051;-80
2024/01/16 16:34:39;;;;;;;5.72;2.63;;;4.10;46.60;;;;;;4099961;29;20528;-78
2024/01/16 16:36:42;;;;;;;7.90;2.78;;;4.00;46.60;;;;;;4100676;29;20051;-79
2024/01/16 16:38:44;;;;;;;7.45;2.78;;;3.90;46.90;;;;;;4100364;29;20047;-81
2024/01/16 16:40:47;;;;;;;6.63;3.00;;;3.80;47.30;;;;;;4099904;29;20098;-77
2024/01/16 16:42:49;;;;;;;6.30;2.70;;;3.70;47.60;;;;;;4100127;29;20513;-77